Impacts TAF Board
For situational awareness. Not to be used for flight planning purposes.
IDs:

KLGA - New York/La Guardia, NY, US

Issued at 2251 UTC 19 Jan 2019
Updated at 2344 UTC 19 Jan 2019
Potential Impact None Slight Moderate High
Time2251Z 20/00Z 20/01Z 20/02Z 20/03Z 20/04Z 20/05Z 20/06Z 20/07Z 20/08Z 20/09Z 20/10Z 20/11Z 20/12Z>>
Type OBS PRVL PRVL PRVL
  [TEMP]  
PRVL
  [TEMP]  
PRVL PRVL PRVL PRVL PRVL PRVL PRVL PRVL PRVL
VIS 10 6 1 1 1 2 2 1.5 1.5 1.5 1.5 1.5 1.5 1.5
CIG 25 25 9 9
  [9]  
9
  [9]  
9 9 7 7 7 7 7 7 7
Cover OVC OVC OVC OVC
  [OVC]  
OVC
  [OVC]  
OVC OVC OVC OVC OVC OVC OVC OVC OVC
FltCat MVFR MVFR IFR IFR
  [IFR]  
IFR
  [IFR]  
IFR IFR IFR IFR IFR IFR IFR IFR IFR
WX -- -SN -SN BR -SN BR
  [-RA -SN]  
-SN BR
  [-RA -SN]  
RA BR RA BR +RA BR +RA BR +RA BR +RA BR +RA BR +RA BR +RA BR
WDir 80 100 100 100
[100]
100
[100]
80 80 80 80 80 80 80 80 80
WSpd 8 12 12 12
  [12]  
12
  [12]  
14 14 14 14 14 14 14 14 14
WGst -- -- -- --
  [--]  
--
  [--]  
-- -- -- -- -- -- -- -- --
Raw TAF
KLGA 192251Z 1923/2024 10010KT P6SM BKN025 OVC035
  FM200000 10012KT 6SM -SN SCT020 OVC025
  FM200100 10012KT 1SM -SN BR OVC009
  TEMPO 2002/2004 -RASN
  FM200400 08014KT 2SM RA BR OVC009
  FM200600 08014KT 1 1/2SM +RA BR OVC007
  FM201400 18015KT 1 1/2SM RA OVC006
  FM201700 30015G25KT P6SM SCT006 BKN020
  FM202200 32022G32KT P6SM BKN035


Raw METAR
KLGA 192251Z 08008KT 10SM BKN025 OVC031 03/M03 A3011 RMK AO2 SLP194 T00281033
KLGA 192151Z 10010KT 10SM BKN027 OVC035 03/M04 A3012 RMK AO2 SLP197 T00281044
KLGA 192051Z 10010KT 10SM BKN028 BKN035 OVC040 03/M04 A3015 RMK AO2 SLP209 T00281044 56016
KLGA 192040Z 10010KT 10SM BKN028 BKN035 OVC040 03/M04 A3015 RMK AO2 T00281044

METAR Board
Radar Display
Forecast Discussion
For situational awareness. Not to be used for flight planning purposes.